Aktualne dane pomiarowe

Uwaga, wersja testowa! Automatyczne pobieranie danych za pomocą narzędzi lub skryptów to umożliwiających jest zabronione.

Dane meteo z obszaru Polski uzyskane na podstawie depesz SYNOP pobieranych co godzinę z NWS. Najedź myszką na symbol przedstawiony w tabeli, aby uzyskać informacje co do jego znaczenia. Prosimy pamiętać, że to testowa wersja strony, która jeszcze nie jest ukończona. Stworzono również jest krótki FAQ dotyczący korzystania z tej podstrony Anomalie temperatury w chwili obecnej odniesione są do okresu referencyjnego 1951-2016. Okres ten będzie później zmieniony na 1981-2010. Kliknij ikonę aby pobrać plik CSV. Kliknij ikonę aby wygenerować mapę synoptyczną dla danego terminu.

Wybierz Datę:    

        

Kraków-Balice (12566)

Dane terminowe dla wybranej stacji. Kliknij datę, aby otrzymać dane z tego terminu dla wszystkich stacji.

TemperaturaZachmurzenieWiatrCiśnienieOpadyPogoda
 Data t td wb tx tn tg rh  Nt Nl Cl Cm Ch ws wd g1 g2 wx mslp ppp ch 24h 12h t ww ww w1 w2  
2019-06-30 23:00:00 19.8 13.5 15.7--- 6740.0wx-1wx--11014.5 986.3 -0.3---------
2019-06-30 22:00:00 22.9 12.5 16.5--- 5240.0wx-1wx--11014.3 986.4 0.1---------
2019-06-30 21:00:00 24.0 12.3 16.8--- 4840.0wx-3wx--31014.4 986.6 0.5---------
2019-06-30 20:00:00 25.4 11.6 17.1--- 4240.0wx-wx3wx---1014.2 986.6 0.3---------
2019-06-30 19:00:00 26.7 11.2 17.4--- 3840.0wx-wx4wx--41013.8 986.3 -0.4---------
2019-06-30 18:00:00 29.4 11.9 18.8 34.2 21.0- 3450.0wx-4wx--41013.4 986.1 -1.2- 0.012------
2019-06-30 17:00:00 33.0 12.1 20.2--- 2850.0wx-4wx--41013.2 986.3 -1.4---------
2019-06-30 16:00:00 33.8 13.3 21.0--- 2950.0wx-3wx--31013.6 986.7 -1.8---------
2019-06-30 15:00:00 33.8 12.2 20.5--- 2750.0wx-2wx--21014.2 987.3 -1.9---------
2019-06-30 14:00:00 33.7 12.1 20.4--- 2750.0wx-2wx--21014.6 987.7 -2.1---------
2019-06-30 13:00:00 32.9 10.3 19.3--- 2540.0wx-5wx--51015.5 988.5 -1.9---------
2019-06-30 12:00:00 32.2 9.7 18.8--- 2540.0wx-6wx--61016.3 989.2 -1.7- 0.06------
2019-06-30 11:00:00 30.9 9.7 18.3--- 2740.0wx-5wx--51017.0 989.8 -1.1---------
2019-06-30 10:00:00 29.4 10.0 17.9--- 3040.0wx-6wx--61017.8 990.4 -0.7---------
2019-06-30 09:00:00 28.1 12.4 18.5--- 3840.0wx-5wx---1018.4 990.9 -0.1---------
2019-06-30 08:00:00 26.6 12.3 17.9--- 4140.0wx-7wx--71018.5 990.9 0.0---------
2019-06-30 07:00:00 24.8 13.0 17.5--- 4840.0wx-4wx--41018.9 991.1 0.3---------
2019-06-30 06:00:00 21.0 13.7 16.3 25.0 13.8 10 6340.0wx-2wx--21019.2 991.0 0.3- 0.012------
2019-06-30 05:00:00 17.8 12.9 14.6--- 7325.0wx-2wx--21019.4 990.9 0.2---------
2019-06-30 04:00:00 15.3 12.4 13.3--- 8330.0wx-1wx---1019.5 990.8 -0.2---------
2019-06-30 03:00:00 14.0 11.2 12.1--- 8335.0wx-0---01019.6 990.7 -0.6---------
2019-06-30 02:00:00 14.1 11.3 12.2--- 8340.0wx-1wx--11019.6 990.7 -0.6---------
2019-06-30 01:00:00 14.5 11.3 12.4--- 8140.0wx-0---01019.8 991.0 -0.1---------
2019-06-30 00:00:00 15.5 11.7 13.0--- 7840.0wx-1wx--11020.0 991.3 0.0- 0.06------
2019-06-29 23:00:00 16.1 11.3 13.0--- 7340.0wx-0----1020.0 991.3 0.1---------
2019-06-29 22:00:00 16.5 11.6 13.3--- 7340.0wx-2wx---1019.7 991.1 0.4---------
2019-06-29 21:00:00 18.0 11.8 14.1--- 6730.0wx-1wx--11019.8 991.3 1.0---------
2019-06-29 20:00:00 20.0 11.5 14.8--- 5830.0wx-1wx--11019.5 991.2 0.7---------
2019-06-29 19:00:00 22.3 11.4 15.7--- 5030.0wx-wx1wx--11018.7 990.7 0.3---------
2019-06-29 18:00:00 25.0 11.5 16.9 27.2 18.0- 4350.0wx-wx3wx-931018.1 990.3 -0.6- 0.012------
2019-06-29 17:00:00 26.6 10.3 17.0--- 3650.0wx-wx4wx---1018.1 990.5 -1.0---------
2019-06-29 16:00:00 27.1 9.0 16.6--- 3250.0wx-wx4wx---1018.0 990.4 -1.6---------
2019-06-29 15:00:00 27.1 8.5 16.4--- 3150.0wx-wx4wx-941018.5 990.9 -1.7---------
2019-06-29 14:00:00 26.7 9.1 16.5--- 3350.0wx-wx5wx---1019.2 991.5 -1.6---------
2019-06-29 13:00:00 25.6 7.7 15.4--- 3250.0wxwxwxwx3wx---1019.8 992.0 -1.4---------
2019-06-29 12:00:00 25.3 7.9 15.4--- 3350.0wxwxwx5wx--51020.4 992.6 -1.1- 0.06------
2019-06-29 11:00:00 24.4 7.9 15.0--- 3550.0wxwxwxwx3wx--31021.0 993.1 -0.9---------
2019-06-29 10:00:00 23.6 6.4 14.1--- 3350.0wx-wx3wx--31021.4 993.4 -0.9---------
2019-06-29 09:00:00 22.2 6.4 13.5--- 3650.0wx-3wx--31021.8 993.7 -0.9---------
2019-06-29 08:00:00 20.7 6.2 12.7--- 3950.0wx-wx3wx--31022.3 994.0 -0.6---------
2019-06-29 07:00:00 19.5 6.9 12.5--- 4450.0wx-wx3wx--31022.7 994.3 -0.2---------
2019-06-29 06:00:00 18.0 7.1 11.8 20.8 13.0 10 4950.0wx-wx2wx--21023.2 994.6 0.4- 0.012------
2019-06-29 05:00:00 16.6 8.3 11.7--- 5850.0wxwxwxwx2wx--21023.3 994.6 0.8---------
2019-06-29 04:00:00 15.9 8.1 11.3--- 6050.0wxwxwxwxwx1wx--11023.3 994.5 0.8---------
2019-06-29 03:00:00 13.0 8.5 10.2--- 7440.0wx-wxwx1wx--11023.3 994.2 0.9---------
2019-06-29 02:00:00 14.9 7.9 10.8--- 6340.0wx-wxwx1wx--11022.7 993.8 0.9---------
2019-06-29 01:00:00 15.1 10.7 12.3--- 7540.0wx-wx2wx--21022.5 993.7 0.8---------
2019-06-29 00:00:00 17.0 10.8 13.1--- 6740.0wxwxwx3wx--31021.9 993.3 0.7- 0.06------
1.6 ms

 

Print Friendly, PDF & Email